BCN weather

Barcelona International Airport
Barcelona, Catalonia, Spain

Public forecast

Using degrees Celsius for public forecast. Weather courtesy of forecast.io.

Current aviation weather report (METAR) for Barcelona International Airport

Retrieved 2019/10/23 01:30 UTC (0 seconds ago):

LEBL 230130Z 33016KT 9999 -RA FEW018 SCT044 16/14 Q1005 TEMPO 3000 TSRA SCT035CB

Aviation forecast (TAF) for Barcelona International Airport

Retrieved 2019-10-23 00:27 UTC (35 minutes ago):

TAF LEBL 222300Z 2300/2324 36008KT 9999 FEW020 TX21/2312Z TN15/2306Z TEMPO 2300/2304 3000 TSRA BKN013 SCT035CB PROB30 TEMPO 2302/2305 36015G25KT BECMG 2306/2308 20015KT BECMG 2322/2324 31005KT